Time;durP1;ratioP1;P1;durP2;ratioP2;P2;SDS_P1;SDS_P2;PMS_P1;PMS_P2;Temp;Humidity;BMP_temperature;BMP_pressure;BME280_temperature;BME280_humidity;BME280_pressure;Samples;Min_cycle;Max_cycle;Signal;HPM_P1;HPM_P2
2024/04/24 00:02:22;;;;;;;21.40;16.20;;;;;;;5.97;85.20;99786.83;178238;1264;45947;-85
2024/04/24 00:06:25;;;;;;;24.60;14.20;;;;;;;5.93;86.48;99784.42;179431;1264;45992;-87
2024/04/24 00:10:29;;;;;;;19.30;16.00;;;;;;;5.84;84.45;99775.94;178798;1264;46122;-84
2024/04/24 00:14:32;;;;;;;22.50;16.10;;;;;;;5.87;84.13;99769.89;178038;1264;58013;-85
2024/04/24 00:18:35;;;;;;;17.70;13.80;;;;;;;5.91;84.03;99764.18;178639;1264;46018;-86
2024/04/24 00:22:38;;;;;;;23.40;17.90;;;;;;;5.90;83.54;99762.67;179400;1263;45993;-83
2024/04/24 00:26:41;;;;;;;22.10;16.10;;;;;;;5.88;84.62;99759.59;178372;1263;46681;-85
2024/04/24 00:30:44;;;;;;;20.10;14.30;;;;;;;5.89;85.55;99757.09;177732;1263;45985;-85
2024/04/24 00:34:47;;;;;;;18.50;15.40;;;;;;;5.86;87.79;99760.43;178946;1263;59817;-83
2024/04/24 00:38:50;;;;;;;21.40;14.90;;;;;;;5.81;88.52;99753.19;178940;1264;43975;-84
2024/04/24 00:42:52;;;;;;;18.40;15.90;;;;;;;5.76;89.73;99747.77;180086;1263;46014;-85
2024/04/24 00:46:58;;;;;;;21.50;16.90;;;;;;;5.62;90.26;99742.91;178432;1263;44658;-85
2024/04/24 00:51:02;;;;;;;23.70;15.90;;;;;;;5.49;88.72;99734.13;178918;1263;44498;-86
2024/04/24 00:55:05;;;;;;;19.20;15.70;;;;;;;5.44;88.37;99733.60;177810;1262;58385;-84
2024/04/24 00:59:09;;;;;;;18.70;14.70;;;;;;;5.29;90.25;99725.16;177029;1263;46023;-86
2024/04/24 01:03:12;;;;;;;25.10;15.70;;;;;;;5.16;89.28;99723.75;177675;1263;46005;-84
2024/04/24 01:07:15;;;;;;;21.90;15.90;;;;;;;5.02;88.79;99718.52;177390;1263;46008;-87
2024/04/24 01:11:18;;;;;;;25.10;16.30;;;;;;;4.92;90.62;99714.11;179243;1264;44303;-86
2024/04/24 01:15:22;;;;;;;22.10;15.60;;;;;;;4.84;91.88;99711.27;177798;1264;59418;-85
2024/04/24 01:19:37;;;;;;;28.00;17.90;;;;;;;4.78;94.70;99709.09;177699;1263;46123;-86
2024/04/24 01:23:48;;;;;;;20.50;15.50;;;;;;;4.74;95.91;99706.90;177986;1262;46025;-85
2024/04/24 01:27:51;;;;;;;27.10;17.70;;;;;;;4.81;95.47;99703.80;178195;1265;46066;-86
2024/04/24 01:31:54;;;;;;;26.30;15.20;;;;;;;4.85;96.90;99702.06;177798;1264;46032;-87
2024/04/24 01:35:57;;;;;;;21.60;16.10;;;;;;;4.86;97.77;99695.67;177466;1264;57092;-87
2024/04/24 01:40:00;;;;;;;23.20;15.70;;;;;;;4.88;96.78;99696.65;177474;1263;46019;-88
2024/04/24 01:44:03;;;;;;;22.60;15.80;;;;;;;4.86;96.82;99690.93;178243;1263;46132;-83
2024/04/24 01:48:06;;;;;;;23.00;15.60;;;;;;;4.77;95.42;99688.76;179704;1263;45923;-85
2024/04/24 01:52:10;;;;;;;20.80;15.80;;;;;;;4.73;94.19;99682.17;178893;1264;45921;-80
2024/04/24 01:56:12;;;;;;;22.30;15.90;;;;;;;4.70;93.40;99675.48;179130;1264;58323;-85
2024/04/24 02:00:15;;;;;;;22.20;15.90;;;;;;;4.68;93.79;99669.31;178128;1262;46032;-81
2024/04/24 02:04:18;;;;;;;29.40;18.30;;;;;;;4.78;94.76;99666.93;179969;1265;43925;-82
2024/04/24 02:08:21;;;;;;;27.20;19.00;;;;;;;4.92;94.93;99664.52;179022;1265;46021;-84
2024/04/24 02:12:24;;;;;;;23.50;17.40;;;;;;;5.06;94.84;99658.70;177902;1264;46152;-84
2024/04/24 02:16:27;;;;;;;24.20;18.50;;;;;;;5.19;94.38;99654.46;177872;1264;59869;-83
2024/04/24 02:20:30;;;;;;;26.00;19.70;;;;;;;5.32;93.65;99653.77;177702;1265;46037;-82
2024/04/24 02:28:54;;;;;;;25.60;16.40;;;;;;;5.47;93.05;99647.58;178180;1262;46247;-84
2024/04/24 02:32:57;;;;;;;24.80;17.50;;;;;;;5.36;94.57;99641.67;178209;1264;46449;-85
2024/04/24 02:37:00;;;;;;;25.70;18.10;;;;;;;5.27;94.07;99637.52;177931;1267;59214;-81
2024/04/24 02:41:03;;;;;;;24.70;18.70;;;;;;;5.27;94.86;99637.38;178277;1263;46017;-84
2024/04/24 02:45:07;;;;;;;26.30;19.20;;;;;;;5.31;95.85;99632.36;178185;1265;46098;-77
2024/04/24 02:49:09;;;;;;;29.80;19.60;;;;;;;5.30;96.31;99628.36;180167;1264;46012;-78
2024/04/24 02:53:12;;;;;;;28.70;18.70;;;;;;;5.27;95.93;99627.84;179204;1264;46096;-83
2024/04/24 02:57:15;;;;;;;22.50;17.30;;;;;;;5.25;95.12;99624.66;178161;1263;58404;-84
2024/04/24 03:01:18;;;;;;;25.20;18.20;;;;;;;5.22;95.59;99621.56;178462;1263;44706;-84
2024/04/24 03:05:21;;;;;;;24.50;17.80;;;;;;;5.22;94.08;99615.40;178057;1263;46024;-87
2024/04/24 03:09:24;;;;;;;23.20;18.80;;;;;;;5.17;94.33;99610.62;177763;1268;44313;-84
2024/04/24 03:13:39;;;;;;;25.60;16.90;;;;;;;5.15;94.38;99610.08;178023;1264;46117;-88
2024/04/24 03:17:43;;;;;;;22.80;16.50;;;;;;;5.13;93.05;99601.46;177919;1267;60949;-87
2024/04/24 03:21:46;;;;;;;23.50;17.20;;;;;;;5.17;94.45;99592.73;179066;1265;45970;-87
2024/04/24 03:25:49;;;;;;;25.80;17.50;;;;;;;5.18;92.70;99586.68;178330;1266;45956;-86
2024/04/24 03:29:52;;;;;;;27.30;18.40;;;;;;;5.10;92.71;99585.49;177885;1268;46098;-85
2024/04/24 03:33:55;;;;;;;34.20;17.40;;;;;;;4.95;91.64;99581.05;177566;1263;46443;-85
2024/04/24 03:37:58;;;;;;;25.00;18.50;;;;;;;4.86;91.53;99573.08;178563;1267;59952;-86
2024/04/24 03:42:01;;;;;;;22.60;16.40;;;;;;;4.81;90.32;99569.02;177315;1265;46014;-84
2024/04/24 03:46:05;;;;;;;24.80;18.70;;;;;;;4.75;90.46;99564.86;177588;1266;46231;-87
2024/04/24 03:50:08;;;;;;;24.40;17.80;;;;;;;4.70;91.73;99560.64;179508;1263;46011;-83
2024/04/24 03:54:11;;;;;;;33.50;20.20;;;;;;;4.66;92.55;99551.96;177700;1264;46613;-85
2024/04/24 03:58:26;;;;;;;28.90;18.90;;;;;;;4.67;93.55;99550.13;179735;1264;57943;-84
2024/04/24 04:02:38;;;;;;;30.10;19.90;;;;;;;4.68;92.71;99548.27;178683;1264;46099;-86
2024/04/24 04:06:51;;;;;;;24.50;17.60;;;;;;;4.68;92.84;99551.08;177923;1264;45963;-86
2024/04/24 04:11:08;;;;;;;32.90;19.90;;;;;;;4.66;93.08;99547.68;177445;1262;46127;-87
2024/04/24 04:15:29;;;;;;;28.90;19.40;;;;;;;4.63;93.84;99539.14;178045;1264;45947;-85
2024/04/24 04:19:40;;;;;;;27.40;17.80;;;;;;;4.63;95.12;99540.88;178410;1265;59425;-85
2024/04/24 04:23:52;;;;;;;28.40;18.30;;;;;;;4.64;95.02;99541.86;177746;1266;46004;-84
2024/04/24 04:28:07;;;;;;;28.10;19.80;;;;;;;4.71;97.22;99541.03;177919;1265;45136;-85
2024/04/24 04:32:15;;;;;;;26.60;19.20;;;;;;;4.86;99.80;99543.02;177565;1264;44880;-81
2024/04/24 04:36:24;;;;;;;25.60;19.40;;;;;;;5.05;99.98;99540.13;177761;1264;46054;-86
2024/04/24 04:40:36;;;;;;;32.50;20.20;;;;;;;5.23;99.97;99546.04;177937;1264;59781;-88
2024/04/24 04:44:39;;;;;;;22.20;18.10;;;;;;;5.38;99.97;99540.12;178091;1264;46147;-86
2024/04/24 04:48:42;;;;;;;29.30;21.10;;;;;;;5.52;99.89;99535.37;177684;1263;46127;-86
2024/04/24 04:52:45;;;;;;;25.00;19.80;;;;;;;5.73;100.00;99537.59;178448;1263;46151;-85
2024/04/24 04:56:48;;;;;;;30.20;20.70;;;;;;;5.96;100.00;99536.92;178122;1264;46050;-83
2024/04/24 05:00:53;;;;;;;29.80;19.70;;;;;;;6.17;99.36;99529.78;177622;1264;58746;-84
2024/04/24 05:04:57;;;;;;;26.60;20.30;;;;;;;6.28;96.27;99528.63;177843;1264;46180;-87
2024/04/24 05:09:00;;;;;;;31.60;22.80;;;;;;;6.47;95.53;99529.47;177548;1266;46135;-85
2024/04/24 05:13:03;;;;;;;26.70;19.50;;;;;;;6.69;90.47;99521.82;178357;1264;46024;-87
2024/04/24 05:17:07;;;;;;;26.50;20.80;;;;;;;6.79;87.66;99518.02;178390;1264;44503;-86
2024/04/24 05:21:11;;;;;;;25.00;18.70;;;;;;;6.83;85.42;99511.04;178083;1263;59024;-84
2024/04/24 05:25:17;;;;;;;25.90;19.00;;;;;;;6.92;84.73;99504.32;178759;1265;46158;-85
2024/04/24 05:29:20;;;;;;;28.20;18.30;;;;;;;7.05;83.77;99499.94;178132;1264;46220;-84
2024/04/24 05:33:23;;;;;;;22.80;18.10;;;;;;;7.26;81.23;99492.31;177474;1266;46055;-87
2024/04/24 05:37:26;;;;;;;25.70;17.70;;;;;;;7.53;79.14;99489.08;177754;1264;46680;-87
2024/04/24 05:41:29;;;;;;;27.40;18.80;;;;;;;7.77;77.35;99491.02;177722;1267;59564;-82
2024/04/24 05:45:32;;;;;;;22.20;15.30;;;;;;;8.09;74.40;99489.61;177794;1266;46770;-86
2024/04/24 05:49:35;;;;;;;20.30;16.50;;;;;;;8.34;73.34;99491.41;177302;1263;46106;-87
2024/04/24 05:53:38;;;;;;;24.40;17.30;;;;;;;8.46;71.35;99483.70;178377;1263;46210;-87
2024/04/24 05:57:40;;;;;;;19.50;14.80;;;;;;;8.52;71.98;99477.55;177660;1267;46227;-86
2024/04/24 06:01:43;;;;;;;19.70;15.70;;;;;;;8.55;71.70;99475.12;178122;1264;60562;-86
2024/04/24 06:05:46;;;;;;;25.40;17.30;;;;;;;8.58;70.50;99471.02;179501;1264;44900;-85
2024/04/24 06:09:49;;;;;;;17.30;14.80;;;;;;;8.58;70.22;99473.09;178532;1266;44194;-84
2024/04/24 06:13:52;;;;;;;25.50;18.30;;;;;;;8.58;68.76;99469.24;177257;1264;46054;-86
2024/04/24 06:17:55;;;;;;;20.40;16.30;;;;;;;8.57;69.38;99470.55;177565;1263;45285;-86
2024/04/24 06:22:00;;;;;;;28.10;18.40;;;;;;;8.68;69.90;99466.59;177543;1265;58277;-83
2024/04/24 06:26:03;;;;;;;23.20;15.70;;;;;;;8.78;69.40;99469.60;177738;1264;46140;-85
2024/04/24 06:30:06;;;;;;;18.10;14.40;;;;;;;8.85;68.92;99469.52;177334;1267;46200;-88
2024/04/24 06:34:09;;;;;;;21.90;14.60;;;;;;;8.92;68.34;99467.55;178677;1264;44025;-83
2024/04/24 06:38:13;;;;;;;21.40;16.00;;;;;;;8.91;68.01;99470.23;179631;1268;44764;-80
2024/04/24 06:42:16;;;;;;;22.00;15.00;;;;;;;8.86;67.19;99467.55;180047;1268;58237;-80
2024/04/24 06:46:19;;;;;;;27.30;17.10;;;;;;;8.90;68.34;99470.73;179664;1264;46074;-87
2024/04/24 06:50:22;;;;;;;20.60;15.20;;;;;;;8.96;67.65;99462.23;177254;1266;46196;-87
2024/04/24 06:54:25;;;;;;;22.00;16.20;;;;;;;9.02;68.01;99459.23;177289;1268;46169;-86
2024/04/24 06:58:31;;;;;;;26.30;15.50;;;;;;;9.07;67.91;99453.13;177422;1267;46142;-86
2024/04/24 07:02:34;;;;;;;21.40;15.70;;;;;;;9.13;67.68;99449.11;178004;1268;59264;-84
2024/04/24 07:06:37;;;;;;;21.30;16.00;;;;;;;9.21;67.57;99444.31;177590;1266;46091;-84
2024/04/24 07:10:40;;;;;;;24.30;16.40;;;;;;;9.27;67.20;99446.23;178176;1267;46149;-84
2024/04/24 07:14:43;;;;;;;23.60;16.70;;;;;;;9.33;66.99;99446.59;177356;1265;46014;-86
2024/04/24 07:18:45;;;;;;;21.70;17.10;;;;;;;9.42;67.43;99442.20;179320;1264;44351;-83
2024/04/24 07:22:49;;;;;;;25.50;18.40;;;;;;;9.49;67.55;99442.70;178084;1264;58638;-84
2024/04/24 07:26:51;;;;;;;25.80;16.60;;;;;;;9.49;67.62;99441.94;177567;1264;46107;-84
2024/04/24 07:30:54;;;;;;;29.20;17.80;;;;;;;9.57;66.78;99440.70;178935;1264;46032;-83
2024/04/24 07:34:57;;;;;;;27.00;18.00;;;;;;;9.66;66.06;99444.34;177546;1265;46062;-86
2024/04/24 07:39:00;;;;;;;24.90;17.50;;;;;;;9.60;66.28;99444.16;178198;1264;46133;-85
2024/04/24 07:43:03;;;;;;;25.20;18.10;;;;;;;9.55;66.00;99443.49;178164;1267;59323;-86
2024/04/24 07:47:06;;;;;;;26.70;16.80;;;;;;;9.53;64.91;99442.10;177610;1263;46057;-85
2024/04/24 07:51:08;;;;;;;20.50;15.20;;;;;;;9.59;66.42;99444.64;178721;1263;46629;-81
2024/04/24 07:55:11;;;;;;;26.20;18.50;;;;;;;9.67;67.08;99441.77;179118;1264;45951;-84
2024/04/24 07:59:14;;;;;;;18.80;16.80;;;;;;;9.64;69.28;99435.86;177746;1264;46119;-78
2024/04/24 08:03:17;;;;;;;25.60;18.50;;;;;;;9.49;70.86;99433.70;178583;1266;57905;-85
2024/04/24 08:07:20;;;;;;;26.80;17.20;;;;;;;9.49;72.39;99432.42;178614;1263;46060;-86
2024/04/24 08:11:23;;;;;;;26.10;18.60;;;;;;;9.55;72.46;99426.06;177966;1264;44292;-85
2024/04/24 08:15:27;;;;;;;29.00;19.70;;;;;;;9.54;73.09;99424.34;179376;1267;46126;-86
2024/04/24 08:19:30;;;;;;;30.10;19.60;;;;;;;9.65;72.59;99426.05;179512;1263;46010;-81
2024/04/24 08:23:32;;;;;;;29.10;20.80;;;;;;;9.93;71.56;99427.58;180014;1263;58011;-83
2024/04/24 08:27:35;;;;;;;21.40;17.90;;;;;;;10.30;69.66;99425.39;178858;1264;191911;-85
2024/04/24 08:31:38;;;;;;;30.70;21.50;;;;;;;10.63;68.16;99426.35;178451;1264;44182;-81
2024/04/24 08:35:41;;;;;;;24.70;19.00;;;;;;;10.81;67.58;99426.77;179337;1264;45992;-85
2024/04/24 08:39:44;;;;;;;20.40;16.00;;;;;;;10.81;68.87;99424.08;178084;1267;44595;-84
2024/04/24 08:43:48;;;;;;;19.80;15.30;;;;;;;10.77;68.23;99422.86;178622;1264;59808;-83
2024/04/24 08:47:51;;;;;;;20.60;14.00;;;;;;;10.81;67.91;99421.61;178970;1264;46129;-84
2024/04/24 08:51:56;;;;;;;23.70;14.60;;;;;;;10.91;66.90;99416.20;177724;1264;46072;-81
2024/04/24 08:56:03;;;;;;;21.80;13.90;;;;;;;11.04;65.03;99410.94;178169;1264;46018;-86
2024/04/24 09:00:07;;;;;;;;;;;;;;;11.05;65.60;99408.71;178361;1264;44067;-83
2024/04/24 09:04:12;;;;;;;13.90;12.40;;;;;;;11.14;63.45;99406.76;178450;1264;59062;-83
2024/04/24 09:08:17;;;;;;;19.10;13.30;;;;;;;11.27;60.55;99403.65;178548;1264;46048;-85
2024/04/24 09:12:21;;;;;;;17.00;12.90;;;;;;;11.29;60.36;99398.71;177295;1264;44902;-84
2024/04/24 09:16:25;;;;;;;18.80;13.40;;;;;;;11.27;60.07;99399.80;178237;1263;46112;-84
2024/04/24 09:20:32;;;;;;;16.60;13.00;;;;;;;11.40;60.34;99398.38;178175;1268;46520;-85
2024/04/24 09:24:36;;;;;;;20.30;11.50;;;;;;;11.45;61.21;99391.85;178597;1263;57966;-84
2024/04/24 09:28:39;;;;;;;15.40;11.60;;;;;;;11.44;61.23;99393.69;177507;1263;46108;-84
2024/04/24 09:32:42;;;;;;;16.10;12.00;;;;;;;11.49;59.78;99394.95;178348;1264;44282;-84
2024/04/24 09:36:45;;;;;;;15.30;12.60;;;;;;;11.61;59.12;99395.15;178401;1267;45982;-85
2024/04/24 09:40:50;;;;;;;14.80;11.30;;;;;;;11.77;58.53;99393.81;178004;1264;46188;-85
2024/04/24 09:44:54;;;;;;;18.10;12.10;;;;;;;11.84;58.05;99390.77;177483;1263;59671;-83
2024/04/24 09:48:57;;;;;;;24.40;12.40;;;;;;;11.91;58.68;99386.64;177653;1263;46319;-85
2024/04/24 09:53:00;;;;;;;14.40;12.60;;;;;;;12.07;58.06;99382.61;177618;1263;46126;-83
2024/04/24 09:57:10;;;;;;;17.20;14.40;;;;;;;12.07;57.34;99381.77;178382;1263;46051;-82
2024/04/24 10:01:16;;;;;;;13.50;11.20;;;;;;;12.14;58.68;99374.84;178906;1262;46073;-84
2024/04/24 10:05:26;;;;;;;19.10;13.20;;;;;;;12.23;59.60;99373.89;178778;1263;58764;-85
2024/04/24 10:09:43;;;;;;;19.40;13.40;;;;;;;12.14;61.10;99370.65;178009;1263;46029;-84
2024/04/24 10:13:49;;;;;;;14.60;11.30;;;;;;;12.08;60.11;99369.75;178480;1264;46145;-85
2024/04/24 10:17:53;;;;;;;;;;;;;;;12.05;59.48;99367.66;178761;1263;46131;-85
2024/04/24 10:21:58;;;;;;;18.50;12.10;;;;;;;12.19;58.83;99359.94;179456;1264;45763;-84
2024/04/24 10:26:02;;;;;;;13.50;11.40;;;;;;;12.29;59.03;99356.52;178506;1264;57551;-84
2024/04/24 10:30:07;;;;;;;16.60;12.50;;;;;;;12.48;58.57;99354.40;177987;1264;44418;-83
2024/04/24 10:34:12;;;;;;;16.50;11.30;;;;;;;12.65;57.50;99351.95;177728;1263;46029;-85
2024/04/24 10:38:16;;;;;;;20.20;13.50;;;;;;;12.73;57.82;99344.70;178983;1264;46046;-85
2024/04/24 10:42:20;;;;;;;14.60;11.10;;;;;;;12.74;56.84;99342.06;180253;1263;44262;-82
2024/04/24 10:46:25;;;;;;;15.70;12.70;;;;;;;12.21;57.43;99341.31;178755;1263;59388;-83
2024/04/24 10:50:28;;;;;;;18.30;12.50;;;;;;;12.14;58.25;99343.38;178060;1264;46088;-85
2024/04/24 10:54:32;;;;;;;16.90;11.20;;;;;;;12.25;57.10;99333.84;178081;1264;46122;-84
2024/04/24 10:58:50;;;;;;;14.60;11.90;;;;;;;12.39;57.65;99330.92;178071;1264;45982;-84
2024/04/24 11:02:55;;;;;;;17.60;12.00;;;;;;;12.59;58.78;99318.88;178089;1265;46102;-85
2024/04/24 11:07:04;;;;;;;12.60;10.00;;;;;;;12.71;57.76;99315.55;178196;1263;59858;-85
2024/04/24 11:11:08;;;;;;;14.10;10.40;;;;;;;12.55;56.72;99313.48;177420;1264;46193;-85
2024/04/24 11:15:21;;;;;;;12.90;10.10;;;;;;;12.66;56.81;99308.46;178799;1263;46106;-83
2024/04/24 11:19:24;;;;;;;19.80;11.80;;;;;;;12.80;57.21;99302.65;180040;1267;46123;-80
2024/04/24 11:23:29;;;;;;;13.10;11.20;;;;;;;12.64;55.84;99299.52;180127;1264;45631;-81
2024/04/24 11:27:32;;;;;;;15.50;12.90;;;;;;;12.79;59.24;99297.52;178637;1266;58262;-84
2024/04/24 11:31:43;;;;;;;16.50;11.50;;;;;;;12.83;57.78;99295.95;178585;1263;46012;-84
2024/04/24 11:35:46;;;;;;;12.70;9.50;;;;;;;12.67;56.68;99291.63;178960;1263;44840;-84
2024/04/24 11:39:49;;;;;;;14.60;10.10;;;;;;;12.76;55.90;99286.90;178503;1263;44264;-83
2024/04/24 11:43:53;;;;;;;12.60;9.60;;;;;;;12.98;56.13;99285.95;178579;1263;44857;-82
2024/04/24 11:47:56;;;;;;;17.50;9.60;;;;;;;13.14;54.55;99280.69;178954;1263;58348;-81
2024/04/24 11:52:06;;;;;;;13.20;10.10;;;;;;;13.24;54.35;99277.02;178854;1263;44784;-83
2024/04/24 11:56:09;;;;;;;16.60;10.00;;;;;;;13.27;55.29;99272.67;178541;1263;46056;-83
2024/04/24 12:00:12;;;;;;;11.00;9.10;;;;;;;13.31;56.11;99269.25;178523;1264;43912;-85
2024/04/24 12:04:15;;;;;;;14.10;10.20;;;;;;;13.29;55.94;99263.45;178769;1263;46039;-83
2024/04/24 12:08:24;;;;;;;10.80;9.50;;;;;;;13.27;54.73;99259.77;179022;1263;57801;-84
2024/04/24 12:12:30;;;;;;;15.00;10.20;;;;;;;13.03;54.83;99255.40;179222;1264;45980;-84
2024/04/24 12:16:33;;;;;;;14.60;9.20;;;;;;;12.96;55.09;99254.19;178531;1264;46156;-84
2024/04/24 12:20:36;;;;;;;12.10;9.60;;;;;;;12.99;55.37;99250.50;179314;1263;44828;-85
2024/04/24 12:24:39;;;;;;;13.20;10.50;;;;;;;13.04;55.05;99249.95;178128;1263;46019;-83
2024/04/24 12:28:43;;;;;;;14.10;10.60;;;;;;;13.13;55.03;99240.58;178892;1263;58288;-84
2024/04/24 12:32:46;;;;;;;23.00;10.90;;;;;;;13.29;54.55;99242.45;177805;1265;46068;-85
2024/04/24 12:36:56;;;;;;;12.20;10.10;;;;;;;13.49;53.95;99241.11;179233;1264;45989;-82
2024/04/24 12:40:59;;;;;;;11.60;9.70;;;;;;;13.49;54.21;99237.90;178613;1263;46245;-82
2024/04/24 12:45:02;;;;;;;10.70;9.30;;;;;;;13.22;54.63;99233.27;177823;1266;46784;-85
2024/04/24 12:49:05;;;;;;;12.30;9.90;;;;;;;13.27;54.42;99233.35;178902;1264;59476;-85
2024/04/24 12:53:08;;;;;;;12.20;9.50;;;;;;;13.34;54.19;99227.85;178240;1264;45977;-85
2024/04/24 12:57:11;;;;;;;16.10;10.80;;;;;;;13.37;53.59;99218.98;178381;1264;44097;-86
2024/04/24 13:01:21;;;;;;;12.70;11.40;;;;;;;13.28;54.34;99216.89;178839;1263;46016;-85
2024/04/24 13:05:24;;;;;;;11.60;8.70;;;;;;;13.29;53.78;99212.89;179953;1264;44775;-80
2024/04/24 13:09:27;;;;;;;12.90;9.30;;;;;;;13.26;53.01;99209.97;180088;1263;58591;-85
2024/04/24 13:13:30;;;;;;;10.80;9.30;;;;;;;13.17;54.98;99204.41;178728;1262;44191;-82
2024/04/24 13:17:33;;;;;;;10.00;7.80;;;;;;;13.19;55.11;99199.59;178030;1263;46120;-84
2024/04/24 13:21:36;;;;;;;11.10;8.90;;;;;;;13.41;54.83;99198.81;178608;1263;45903;-81
2024/04/24 13:25:47;;;;;;;11.30;8.70;;;;;;;13.58;55.15;99190.00;179028;1262;46260;-85
2024/04/24 13:29:50;;;;;;;12.80;8.20;;;;;;;13.73;53.42;99187.77;177755;1262;58283;-84
2024/04/24 13:33:53;;;;;;;9.70;6.80;;;;;;;13.76;52.37;99185.73;179093;1262;43958;-86
2024/04/24 13:37:56;;;;;;;11.20;7.80;;;;;;;13.70;52.66;99182.56;179045;1262;44292;-86
2024/04/24 13:41:59;;;;;;;10.40;7.90;;;;;;;13.46;52.54;99181.52;178922;1262;45918;-83
2024/04/24 13:46:03;;;;;;;12.60;8.40;;;;;;;13.51;52.93;99178.30;178868;1262;46142;-86
2024/04/24 13:50:09;;;;;;;12.40;8.70;;;;;;;13.57;51.91;99179.38;178678;1262;58333;-85
2024/04/24 13:54:13;;;;;;;8.50;6.70;;;;;;;13.53;51.94;99180.12;178185;1262;44209;-85
2024/04/24 13:58:18;;;;;;;10.80;7.50;;;;;;;13.46;52.26;99175.02;177949;1263;46127;-82
2024/04/24 14:02:21;;;;;;;13.40;9.50;;;;;;;13.62;51.51;99178.70;178075;1262;46059;-83
2024/04/24 14:06:24;;;;;;;11.70;8.70;;;;;;;13.70;51.64;99176.52;179280;1262;46478;-83
2024/04/24 14:10:29;;;;;;;17.70;9.70;;;;;;;13.72;50.91;99173.23;178629;1262;59671;-86
2024/04/24 14:14:32;;;;;;;12.10;7.10;;;;;;;13.55;51.33;99173.30;178376;1262;45876;-86
2024/04/24 14:18:35;;;;;;;8.80;7.70;;;;;;;13.29;51.94;99170.29;178668;1262;45990;-86
2024/04/24 14:22:38;;;;;;;8.60;7.50;;;;;;;13.25;52.67;99168.41;178958;1265;45909;-84
2024/04/24 14:26:41;;;;;;;10.60;7.20;;;;;;;13.28;51.38;99164.23;178647;1262;46130;-85
2024/04/24 14:30:44;;;;;;;8.70;6.70;;;;;;;13.34;51.23;99162.28;178595;1262;58265;-85
2024/04/24 14:34:48;;;;;;;9.10;7.80;;;;;;;13.46;51.92;99155.11;178577;1262;45970;-85
2024/04/24 14:38:53;;;;;;;7.90;6.70;;;;;;;13.57;51.46;99153.33;178402;1262;46488;-86
2024/04/24 14:42:56;;;;;;;8.30;6.80;;;;;;;13.62;51.97;99151.61;178911;1262;45985;-85
2024/04/24 14:46:59;;;;;;;7.40;5.90;;;;;;;13.50;50.38;99147.34;178103;1262;46146;-83
2024/04/24 14:51:02;;;;;;;7.70;6.90;;;;;;;13.29;50.68;99148.55;178610;1262;59429;-83
2024/04/24 14:55:05;;;;;;;9.10;7.00;;;;;;;13.18;51.93;99146.44;178885;1262;46026;-83
2024/04/24 14:59:08;;;;;;;10.30;7.40;;;;;;;13.08;52.67;99142.73;178701;1262;44238;-85
2024/04/24 15:03:11;;;;;;;10.50;7.70;;;;;;;13.08;52.10;99140.16;178347;1262;44153;-84
2024/04/24 15:07:14;;;;;;;8.70;7.10;;;;;;;12.87;53.56;99142.70;179612;1262;44288;-81
2024/04/24 15:11:17;;;;;;;9.30;7.00;;;;;;;12.79;53.81;99143.27;180213;1263;58111;-85
2024/04/24 15:15:20;;;;;;;6.70;6.00;;;;;;;12.90;53.04;99139.52;178693;1262;44137;-83
2024/04/24 15:19:23;;;;;;;10.50;7.50;;;;;;;12.92;53.77;99139.11;178026;1263;46021;-79
2024/04/24 15:23:26;;;;;;;9.80;7.90;;;;;;;12.83;52.39;99134.30;178862;1262;46058;-83
2024/04/24 15:27:29;;;;;;;9.60;7.40;;;;;;;12.66;52.29;99135.41;179104;1262;44335;-86
2024/04/24 15:31:32;;;;;;;8.30;6.70;;;;;;;12.63;53.13;99134.45;180025;1262;57912;-81
2024/04/24 15:35:35;;;;;;;10.30;7.70;;;;;;;12.63;54.38;99129.77;178998;1263;46083;-86
2024/04/24 15:39:38;;;;;;;11.70;9.20;;;;;;;12.68;53.96;99127.52;179728;1262;44336;-84
2024/04/24 15:43:43;;;;;;;12.40;7.90;;;;;;;12.73;52.78;99124.27;179066;1262;45114;-85
2024/04/24 15:47:47;;;;;;;12.20;7.30;;;;;;;12.79;52.27;99117.27;178261;1262;46135;-86
2024/04/24 15:51:50;;;;;;;12.90;8.50;;;;;;;12.89;51.90;99122.38;177588;1262;59782;-84
2024/04/24 15:55:54;;;;;;;10.60;7.40;;;;;;;12.93;51.68;99119.64;178788;1261;46333;-83
2024/04/24 15:59:57;;;;;;;7.90;6.80;;;;;;;12.83;51.88;99117.73;178066;1261;45963;-83
2024/04/24 16:04:00;;;;;;;11.70;7.50;;;;;;;12.75;51.94;99116.79;177997;1262;46216;-85
2024/04/24 16:08:03;;;;;;;9.60;7.80;;;;;;;12.68;52.96;99118.38;177595;1262;46556;-84
2024/04/24 16:12:07;;;;;;;7.00;6.30;;;;;;;12.74;53.49;99115.99;179520;1262;57918;-84
2024/04/24 16:16:13;;;;;;;10.00;7.60;;;;;;;12.80;54.44;99116.46;178080;1262;46055;-83
2024/04/24 16:20:16;;;;;;;9.50;7.30;;;;;;;12.72;52.46;99115.66;178317;1265;46045;-85
2024/04/24 16:24:19;;;;;;;10.20;9.10;;;;;;;12.58;52.52;99113.84;177836;1264;46575;-82
2024/04/24 16:28:21;;;;;;;11.00;7.80;;;;;;;12.43;53.19;99115.05;179777;1262;43994;-80
2024/04/24 16:32:24;;;;;;;17.20;11.20;;;;;;;12.27;53.29;99111.84;180418;1262;58297;-82
2024/04/24 16:36:28;;;;;;;11.50;9.60;;;;;;;12.11;53.75;99113.29;179174;1261;46121;-85
2024/04/24 16:40:31;;;;;;;12.10;8.60;;;;;;;12.03;53.64;99110.98;178300;1262;45937;-85
2024/04/24 16:44:34;;;;;;;12.90;8.90;;;;;;;11.88;54.89;99114.98;178374;1262;46138;-85
2024/04/24 16:48:37;;;;;;;16.00;10.70;;;;;;;11.70;55.99;99112.27;178552;1262;44882;-85
2024/04/24 16:52:40;;;;;;;15.20;12.60;;;;;;;11.66;59.37;99113.60;178283;1261;59147;-85
2024/04/24 16:56:43;;;;;;;28.20;19.10;;;;;;;11.61;60.37;99115.15;178694;1262;45924;-84
2024/04/24 17:00:46;;;;;;;28.60;19.90;;;;;;;11.60;61.84;99112.99;178270;1261;44233;-85
2024/04/24 17:04:49;;;;;;;27.90;17.00;;;;;;;11.59;62.53;99110.73;178319;1262;46177;-79
2024/04/24 17:08:52;;;;;;;26.40;17.50;;;;;;;11.54;63.24;99111.09;179125;1262;44165;-85
2024/04/24 17:12:55;;;;;;;25.80;16.90;;;;;;;11.48;64.66;99112.47;178669;1262;60828;-81
2024/04/24 17:16:58;;;;;;;21.00;17.20;;;;;;;11.45;64.98;99114.31;178745;1262;46010;-84
2024/04/24 17:21:02;;;;;;;26.70;20.20;;;;;;;11.43;65.40;99115.41;178413;1261;46524;-83
2024/04/24 17:25:05;;;;;;;24.10;16.90;;;;;;;11.38;66.03;99114.76;179436;1262;43925;-85
2024/04/24 17:29:08;;;;;;;19.90;15.60;;;;;;;11.26;65.43;99116.30;179052;1262;46180;-83
2024/04/24 17:33:11;;;;;;;21.00;16.30;;;;;;;11.13;66.63;99123.85;178823;1263;59612;-85
2024/04/24 17:37:14;;;;;;;24.70;17.60;;;;;;;11.06;66.99;99124.73;178811;1262;45917;-84
2024/04/24 17:41:17;;;;;;;23.10;17.00;;;;;;;11.01;68.84;99125.59;179902;1261;44058;-84
2024/04/24 17:45:20;;;;;;;23.60;16.60;;;;;;;10.96;69.29;99123.25;179865;1262;46546;-81
2024/04/24 17:49:23;;;;;;;20.50;14.80;;;;;;;10.91;69.39;99125.35;179707;1262;45972;-85
2024/04/24 17:53:26;;;;;;;11.70;9.80;;;;;;;10.85;68.91;99122.92;179702;1262;58000;-87
2024/04/24 17:57:29;;;;;;;15.20;11.50;;;;;;;10.83;69.01;99128.61;178551;1262;46122;-85
2024/04/24 18:01:32;;;;;;;15.20;11.40;;;;;;;10.78;71.24;99129.86;178844;1262;45985;-84
2024/04/24 18:05:35;;;;;;;11.80;9.80;;;;;;;10.62;73.02;99131.84;179373;1262;46069;-85
2024/04/24 18:09:38;;;;;;;12.90;10.00;;;;;;;10.47;72.27;99134.48;178414;1265;46139;-85
2024/04/24 18:13:41;;;;;;;18.80;13.10;;;;;;;10.38;70.56;99138.06;177867;1262;59299;-84
2024/04/24 18:17:44;;;;;;;22.60;19.00;;;;;;;10.30;70.24;99142.17;178236;1262;46046;-84
2024/04/24 18:21:46;;;;;;;25.90;16.10;;;;;;;10.23;67.79;99144.61;178803;1262;44692;-84
2024/04/24 18:25:49;;;;;;;20.10;12.80;;;;;;;10.19;69.05;99144.36;179582;1262;46170;-83
2024/04/24 18:29:52;;;;;;;25.40;12.70;;;;;;;10.08;71.96;99144.80;178258;1262;46038;-83
2024/04/24 18:33:55;;;;;;;18.50;10.80;;;;;;;9.95;72.76;99150.00;178649;1265;58879;-84
2024/04/24 18:37:59;;;;;;;19.30;12.70;;;;;;;9.84;71.91;99150.89;179191;1262;45950;-86
2024/04/24 18:42:05;;;;;;;17.90;11.60;;;;;;;9.76;70.21;99154.81;178745;1262;46014;-83
2024/04/24 18:46:08;;;;;;;13.80;11.00;;;;;;;9.69;70.56;99160.67;177870;1262;45821;-85